Time;durP1;ratioP1;P1;durP2;ratioP2;P2;SDS_P1;SDS_P2;PMS_P1;PMS_P2;Temp;Humidity;BMP_temperature;BMP_pressure;BME280_temperature;BME280_humidity;BME280_pressure;Samples;Min_cycle;Max_cycle;Signal;HPM_P1;HPM_P2
2023/06/13 00:02:28;;;;;;;7.25;4.22;;;18.30;44.40;;;;;;5003955;28;114611;-80
2023/06/13 00:04:57;;;;;;;7.57;4.55;;;18.30;44.60;;;;;;5004115;28;114280;-79
2023/06/13 00:07:24;;;;;;;7.20;4.55;;;18.30;44.40;;;;;;5003033;28;117804;-79
2023/06/13 00:09:52;;;;;;;7.28;4.50;;;18.30;44.40;;;;;;5004325;28;115967;-79
2023/06/13 00:12:20;;;;;;;8.38;4.25;;;18.20;44.40;;;;;;5004853;28;117401;-78
2023/06/13 00:14:51;;;;;;;7.72;4.40;;;18.20;44.60;;;;;;5005079;28;114428;-80
2023/06/13 00:17:25;;;;;;;6.72;4.10;;;18.20;44.90;;;;;;5012396;28;114886;-79
2023/06/13 00:19:54;;;;;;;6.90;4.07;;;18.20;45.00;;;;;;5023826;28;114760;-77
2023/06/13 00:22:22;;;;;;;7.90;4.20;;;18.10;44.80;;;;;;5016343;28;114547;-77
2023/06/13 00:24:49;;;;;;;7.80;4.35;;;18.10;44.90;;;;;;5004764;28;114222;-78
2023/06/13 00:27:16;;;;;;;7.30;4.50;;;18.20;45.00;;;;;;5002684;28;115472;-79
2023/06/13 00:29:44;;;;;;;8.13;4.40;;;18.20;44.80;;;;;;5002433;28;114908;-79
2023/06/13 00:32:11;;;;;;;8.05;4.35;;;18.20;44.90;;;;;;4985803;28;114244;-77
2023/06/13 00:34:38;;;;;;;7.30;4.13;;;18.20;44.70;;;;;;5003794;28;114149;-76
2023/06/13 00:37:09;;;;;;;7.13;4.60;;;18.20;45.10;;;;;;4988115;28;114917;-76
2023/06/13 00:39:36;;;;;;;6.28;4.07;;;18.10;45.10;;;;;;5007355;28;114560;-76
2023/06/13 00:42:06;;;;;;;6.68;4.45;;;18.10;44.90;;;;;;5007657;28;114334;-77
2023/06/13 00:44:34;;;;;;;6.85;4.03;;;18.20;45.00;;;;;;5003166;28;114916;-76
2023/06/13 00:47:03;;;;;;;8.02;4.22;;;18.10;45.10;;;;;;5006310;28;116273;-77
2023/06/13 00:49:31;;;;;;;7.38;4.40;;;18.20;44.90;;;;;;4989837;28;114538;-77
2023/06/13 00:52:04;;;;;;;5.57;4.15;;;18.20;44.80;;;;;;5007347;28;114590;-76
2023/06/13 00:54:32;;;;;;;5.73;3.83;;;18.20;45.10;;;;;;5006658;28;114245;-77
2023/06/13 00:57:00;;;;;;;9.10;4.43;;;18.20;45.10;;;;;;4989382;28;116566;-78
2023/06/13 00:59:27;;;;;;;7.38;4.18;;;18.10;45.10;;;;;;5006486;28;114711;-78
2023/06/13 01:01:56;;;;;;;6.82;4.07;;;18.10;45.00;;;;;;4990873;28;114334;-78
2023/06/13 01:04:24;;;;;;;7.55;3.83;;;18.10;45.20;;;;;;5007082;28;114489;-78
2023/06/13 01:06:51;;;;;;;7.03;4.15;;;18.10;45.20;;;;;;4989401;28;115107;-78
2023/06/13 01:09:19;;;;;;;5.63;4.40;;;18.10;45.20;;;;;;5007281;28;114626;-78
2023/06/13 01:12:00;;;;;;;6.28;4.10;;;18.10;45.00;;;;;;5008043;28;114131;-77
2023/06/13 01:14:47;;;;;;;6.25;3.90;;;18.20;45.30;;;;;;4990640;28;115208;-77
2023/06/13 01:17:18;;;;;;;6.50;4.68;;;18.10;45.30;;;;;;5005710;28;115236;-77
2023/06/13 01:19:58;;;;;;;6.53;4.43;;;18.00;45.10;;;;;;4989528;28;114759;-77
2023/06/13 01:22:38;;;;;;;6.75;4.13;;;18.00;44.70;;;;;;4990041;28;115915;-77
2023/06/13 01:25:24;;;;;;;6.35;3.63;;;17.90;44.80;;;;;;5007853;28;114267;-78
2023/06/13 01:27:53;;;;;;;6.28;3.78;;;18.00;45.20;;;;;;5006584;28;115490;-78
2023/06/13 01:30:20;;;;;;;6.00;4.47;;;17.90;45.60;;;;;;4997008;28;117226;-78
2023/06/13 01:32:51;;;;;;;6.65;3.80;;;17.90;45.30;;;;;;5009480;28;114621;-77
2023/06/13 01:35:19;;;;;;;6.28;4.45;;;17.90;45.40;;;;;;5026348;28;114642;-77
2023/06/13 01:37:46;;;;;;;6.07;4.20;;;17.90;45.10;;;;;;5025167;28;115005;-78
2023/06/13 01:40:16;;;;;;;6.47;4.20;;;17.80;45.30;;;;;;5025531;28;114638;-78
2023/06/13 01:42:43;;;;;;;6.30;3.97;;;17.80;44.70;;;;;;5027430;28;114694;-79
2023/06/13 01:45:10;;;;;;;7.70;4.10;;;17.80;45.30;;;;;;5020240;28;114616;-78
2023/06/13 01:48:05;;;;;;;6.78;3.60;;;17.80;45.10;;;;;;5006381;28;115559;-79
2023/06/13 01:50:35;;;;;;;6.43;4.00;;;17.80;45.60;;;;;;5005595;28;114629;-79
2023/06/13 01:53:20;;;;;;;6.07;3.83;;;17.80;45.20;;;;;;5006241;28;114419;-79
2023/06/13 01:56:02;;;;;;;5.88;4.45;;;17.80;45.40;;;;;;4989663;28;114273;-79
2023/06/13 01:58:39;;;;;;;4.75;3.38;;;17.80;45.30;;;;;;5004747;28;116588;-78
2023/06/13 02:01:07;;;;;;;5.40;4.00;;;17.80;45.60;;;;;;4988750;28;114718;-79
2023/06/13 02:03:34;;;;;;;8.60;3.83;;;17.80;45.50;;;;;;5005857;28;114402;-79
2023/06/13 02:06:02;;;;;;;4.97;3.47;;;17.90;45.30;;;;;;4972679;28;114415;-78
2023/06/13 02:08:31;;;;;;;5.20;3.70;;;17.90;45.30;;;;;;5006343;28;115013;-78
2023/06/13 02:10:58;;;;;;;6.90;3.88;;;17.90;45.10;;;;;;5004826;28;114571;-79
2023/06/13 02:13:26;;;;;;;5.60;4.00;;;17.90;44.80;;;;;;5006507;28;114206;-79
2023/06/13 02:15:54;;;;;;;6.07;3.35;;;17.90;45.20;;;;;;4989025;28;114636;-79
2023/06/13 02:18:21;;;;;;;5.60;3.80;;;17.90;45.30;;;;;;5006008;28;114949;-78
2023/06/13 02:20:48;;;;;;;5.22;3.20;;;17.80;44.70;;;;;;5023059;28;115665;-80
2023/06/13 02:23:18;;;;;;;6.70;3.53;;;17.80;45.00;;;;;;5025947;27;114374;-79
2023/06/13 02:25:47;;;;;;;5.80;3.80;;;17.80;44.70;;;;;;5026010;28;114270;-78
2023/06/13 02:28:17;;;;;;;5.00;3.60;;;17.80;44.80;;;;;;5024356;28;114840;-78
2023/06/13 02:30:47;;;;;;;6.28;3.78;;;17.80;45.30;;;;;;5008649;28;114687;-79
2023/06/13 02:33:15;;;;;;;5.40;3.55;;;17.80;45.00;;;;;;5027014;27;114269;-79
2023/06/13 02:35:45;;;;;;;8.55;3.33;;;17.80;45.10;;;;;;5027251;27;114352;-79
2023/06/13 02:38:13;;;;;;;5.45;3.17;;;17.80;45.20;;;;;;5008684;28;114830;-80
2023/06/13 02:40:40;;;;;;;5.82;3.17;;;17.80;45.10;;;;;;5026059;28;114669;-79
2023/06/13 02:43:09;;;;;;;5.72;3.42;;;17.80;45.10;;;;;;5009275;28;114407;-79
2023/06/13 02:45:36;;;;;;;7.38;3.63;;;17.80;45.30;;;;;;5027260;28;114336;-78
2023/06/13 02:48:03;;;;;;;5.25;3.33;;;17.80;44.90;;;;;;5023815;28;114943;-79
2023/06/13 02:50:32;;;;;;;6.60;3.88;;;17.70;45.20;;;;;;5024902;28;114730;-79
2023/06/13 02:52:59;;;;;;;5.63;3.28;;;17.80;44.20;;;;;;5026918;28;114730;-79
2023/06/13 02:55:30;;;;;;;7.40;3.90;;;17.70;44.40;;;;;;5026747;27;114408;-78
2023/06/13 02:57:57;;;;;;;6.47;3.65;;;17.80;44.70;;;;;;5019321;28;115279;-78
2023/06/13 03:00:24;;;;;;;6.57;3.58;;;17.80;44.90;;;;;;5004110;28;114602;-78
2023/06/13 03:03:03;;;;;;;4.70;3.20;;;17.70;44.60;;;;;;5005232;28;114284;-78
2023/06/13 03:05:32;;;;;;;5.00;3.35;;;17.70;44.50;;;;;;4972925;28;114437;-77
2023/06/13 03:08:02;;;;;;;8.73;3.63;;;17.70;44.80;;;;;;4988060;28;115085;-78
2023/06/13 03:10:29;;;;;;;7.15;3.80;;;17.70;44.80;;;;;;4988218;28;114794;-78
2023/06/13 03:12:57;;;;;;;5.97;3.53;;;17.80;44.90;;;;;;4998468;28;114212;-78
2023/06/13 03:15:26;;;;;;;6.05;4.03;;;17.90;44.80;;;;;;4988166;28;114285;-78
2023/06/13 03:17:56;;;;;;;7.25;3.42;;;18.30;42.90;;;;;;4988336;28;114864;-79
2023/06/13 03:20:24;;;;;;;7.78;3.50;;;18.70;43.60;;;;;;4987355;28;116626;-78
2023/06/13 03:22:59;;;;;;;5.38;3.05;;;19.00;42.70;;;;;;5004926;28;114377;-78
2023/06/13 03:25:27;;;;;;;5.10;3.50;;;19.30;42.50;;;;;;4988934;28;114206;-79
2023/06/13 03:27:55;;;;;;;5.82;3.85;;;19.60;41.70;;;;;;5004267;28;114964;-79
2023/06/13 03:30:22;;;;;;;9.00;3.97;;;20.00;41.20;;;;;;5005294;28;115126;-79
2023/06/13 03:32:54;;;;;;;6.75;3.92;;;20.30;39.70;;;;;;4988230;28;114406;-79
2023/06/13 03:35:24;;;;;;;5.15;3.15;;;20.50;39.20;;;;;;5003664;28;114237;-79
2023/06/13 03:37:52;;;;;;;6.47;3.38;;;20.70;39.80;;;;;;5023751;28;114900;-78
2023/06/13 03:40:19;;;;;;;5.43;3.78;;;20.90;39.30;;;;;;5024257;28;114686;-79
2023/06/13 03:42:46;;;;;;;7.63;3.40;;;21.00;38.50;;;;;;5008430;28;114825;-79
2023/06/13 03:45:15;;;;;;;6.60;3.60;;;21.20;37.80;;;;;;4992049;28;114685;-79
2023/06/13 03:47:42;;;;;;;7.93;3.90;;;21.20;38.00;;;;;;5023762;28;115319;-79
2023/06/13 03:50:10;;;;;;;7.38;4.05;;;21.30;38.20;;;;;;5024943;28;114690;-78
2023/06/13 03:52:37;;;;;;;6.93;3.88;;;21.30;37.80;;;;;;4984309;28;116709;-79
2023/06/13 03:55:04;;;;;;;7.78;3.65;;;21.30;37.60;;;;;;5005516;28;114144;-78
2023/06/13 03:57:35;;;;;;;7.50;4.38;;;21.30;37.90;;;;;;5003725;28;115250;-79
2023/06/13 04:00:05;;;;;;;7.97;4.65;;;21.30;38.20;;;;;;5005350;28;116298;-77
2023/06/13 04:02:38;;;;;;;7.68;4.35;;;21.40;36.90;;;;;;5003849;28;114500;-78
2023/06/13 04:05:07;;;;;;;7.65;4.72;;;21.50;37.20;;;;;;5005859;28;115587;-77
2023/06/13 04:07:37;;;;;;;7.00;4.70;;;21.50;37.20;;;;;;4987161;28;115103;-77
2023/06/13 04:10:05;;;;;;;7.55;4.63;;;21.50;36.60;;;;;;4987426;28;114732;-77
2023/06/13 04:12:35;;;;;;;8.07;4.10;;;21.40;37.20;;;;;;4989653;28;119455;-78
2023/06/13 04:15:04;;;;;;;9.30;4.53;;;21.40;36.70;;;;;;4988050;28;114261;-77
2023/06/13 04:17:32;;;;;;;7.10;4.03;;;21.30;36.60;;;;;;4986381;28;115735;-77
2023/06/13 04:20:00;;;;;;;8.55;4.43;;;21.20;37.00;;;;;;5005026;28;114786;-80
2023/06/13 04:22:31;;;;;;;7.22;4.60;;;21.10;37.50;;;;;;5004309;28;114603;-78
2023/06/13 04:24:59;;;;;;;6.68;4.13;;;20.80;37.30;;;;;;4987890;28;114684;-78
2023/06/13 04:27:29;;;;;;;7.15;4.00;;;20.70;38.10;;;;;;5002755;28;114920;-78
2023/06/13 04:29:56;;;;;;;7.28;4.45;;;20.70;38.10;;;;;;4987383;28;114641;-78
2023/06/13 04:32:26;;;;;;;6.72;4.68;;;20.70;38.20;;;;;;5003911;28;114322;-78
2023/06/13 04:34:58;;;;;;;6.95;4.78;;;20.70;38.30;;;;;;5004176;28;114264;-78
2023/06/13 04:37:25;;;;;;;7.32;4.28;;;20.70;38.20;;;;;;5003031;28;114901;-77
2023/06/13 04:39:53;;;;;;;7.40;4.00;;;20.70;38.40;;;;;;4985366;28;117834;-78
2023/06/13 04:42:26;;;;;;;8.90;4.53;;;20.70;38.00;;;;;;5003882;28;114194;-78
2023/06/13 04:44:58;;;;;;;9.75;4.53;;;20.60;37.90;;;;;;4999346;28;114475;-77
2023/06/13 04:47:27;;;;;;;7.63;4.68;;;20.40;38.20;;;;;;5002689;28;114917;-77
2023/06/13 04:50:15;;;;;;;7.85;4.85;;;20.30;38.10;;;;;;5004491;28;114774;-77
2023/06/13 04:52:43;;;;;;;6.97;4.38;;;20.20;38.20;;;;;;5004179;28;114474;-79
2023/06/13 04:55:10;;;;;;;7.80;4.20;;;20.20;38.80;;;;;;4986547;28;114627;-79
2023/06/13 04:57:37;;;;;;;10.15;4.30;;;20.10;38.30;;;;;;5004034;28;115453;-79
2023/06/13 05:00:07;;;;;;;7.80;4.18;;;20.10;38.20;;;;;;5003998;28;115051;-79
2023/06/13 05:02:35;;;;;;;9.40;4.28;;;20.00;38.20;;;;;;5004356;28;114954;-78
2023/06/13 05:05:04;;;;;;;8.18;4.40;;;20.00;38.50;;;;;;5004636;28;114542;-79
2023/06/13 05:07:32;;;;;;;7.97;4.30;;;20.10;38.30;;;;;;5002170;28;118603;-79
2023/06/13 05:09:59;;;;;;;7.13;4.57;;;20.10;38.50;;;;;;5003277;28;115910;-78
2023/06/13 05:12:27;;;;;;;9.07;4.53;;;20.10;38.40;;;;;;5003478;28;114414;-78
2023/06/13 05:14:54;;;;;;;7.53;4.05;;;20.10;38.40;;;;;;5002817;28;114454;-77
2023/06/13 05:17:22;;;;;;;7.25;4.57;;;20.30;37.80;;;;;;5000466;28;115221;-77
2023/06/13 05:19:50;;;;;;;8.35;4.90;;;20.30;37.70;;;;;;5002165;28;114617;-77
2023/06/13 05:22:17;;;;;;;6.43;4.25;;;20.30;37.50;;;;;;5005005;28;114321;-77
2023/06/13 05:24:44;;;;;;;7.70;4.68;;;20.30;37.30;;;;;;5007211;28;114285;-78
2023/06/13 05:27:13;;;;;;;6.88;4.20;;;20.30;37.50;;;;;;5005839;28;116192;-77
2023/06/13 05:29:41;;;;;;;6.95;3.75;;;20.40;37.30;;;;;;5006413;28;115367;-78
2023/06/13 05:32:08;;;;;;;8.45;4.78;;;20.40;37.10;;;;;;5006630;28;114618;-78
2023/06/13 05:34:35;;;;;;;7.00;4.22;;;20.50;37.10;;;;;;5006073;28;114634;-78
2023/06/13 05:37:04;;;;;;;8.05;4.40;;;20.50;37.20;;;;;;5006722;28;114901;-78
2023/06/13 05:39:31;;;;;;;6.35;4.55;;;20.60;37.10;;;;;;4988972;28;114644;-79
2023/06/13 05:41:59;;;;;;;6.97;4.13;;;20.60;37.50;;;;;;5006879;28;114275;-80
2023/06/13 05:44:28;;;;;;;10.23;4.80;;;20.70;37.60;;;;;;5006285;28;114130;-80
2023/06/13 05:46:56;;;;;;;8.50;6.00;;;20.80;37.50;;;;;;5006452;28;115078;-79
2023/06/13 05:49:23;;;;;;;7.45;4.28;;;20.90;37.10;;;;;;5006494;28;114850;-78
2023/06/13 05:51:52;;;;;;;6.03;4.22;;;20.90;37.50;;;;;;5006162;28;114803;-79
2023/06/13 05:54:19;;;;;;;6.80;4.57;;;20.90;36.90;;;;;;5006164;28;114324;-78
2023/06/13 05:56:47;;;;;;;7.45;4.20;;;21.00;37.30;;;;;;5004214;28;114993;-77
2023/06/13 05:59:15;;;;;;;9.13;5.00;;;21.00;37.30;;;;;;5004892;28;114969;-78
2023/06/13 06:01:42;;;;;;;6.65;3.83;;;21.30;37.30;;;;;;5005286;28;114548;-78
2023/06/13 06:04:10;;;;;;;8.90;4.28;;;21.30;37.20;;;;;;5006749;28;114216;-80
2023/06/13 06:06:38;;;;;;;7.38;4.20;;;21.50;37.00;;;;;;5004894;28;116733;-77
2023/06/13 06:09:05;;;;;;;6.35;4.13;;;21.50;36.50;;;;;;5006271;27;115348;-78
2023/06/13 06:11:33;;;;;;;7.40;4.18;;;21.60;36.70;;;;;;5005321;28;114263;-78
2023/06/13 06:14:02;;;;;;;8.63;2.92;;;21.70;36.40;;;;;;5006487;28;114279;-77
2023/06/13 06:16:29;;;;;;;6.40;3.30;;;21.60;35.60;;;;;;5005596;27;115330;-78
2023/06/13 06:18:56;;;;;;;6.22;3.17;;;21.60;35.60;;;;;;5004777;28;114663;-78
2023/06/13 06:21:24;;;;;;;5.07;2.80;;;21.70;35.30;;;;;;5005294;28;114462;-78
2023/06/13 06:23:51;;;;;;;6.18;3.13;;;21.70;35.20;;;;;;4989348;28;114537;-78
2023/06/13 06:26:18;;;;;;;5.35;3.17;;;21.70;35.20;;;;;;5006151;28;114773;-77
2023/06/13 06:28:45;;;;;;;4.60;3.05;;;21.50;35.40;;;;;;5006135;28;114653;-77
2023/06/13 06:31:12;;;;;;;7.05;3.38;;;21.50;36.10;;;;;;5004740;28;114591;-78
2023/06/13 06:33:39;;;;;;;6.43;3.15;;;21.50;36.10;;;;;;4971864;28;114470;-77
2023/06/13 06:36:06;;;;;;;7.20;3.25;;;21.50;36.00;;;;;;5006023;28;115799;-78
2023/06/13 06:38:33;;;;;;;5.80;3.17;;;21.50;36.30;;;;;;5004083;28;115771;-76
2023/06/13 06:41:01;;;;;;;4.97;3.20;;;21.50;35.90;;;;;;5005390;28;114198;-77
2023/06/13 06:43:29;;;;;;;5.00;3.22;;;21.30;36.00;;;;;;5005639;28;114286;-77
2023/06/13 06:46:05;;;;;;;4.75;2.90;;;21.30;36.30;;;;;;5004189;28;115012;-78
2023/06/13 06:48:36;;;;;;;5.38;3.22;;;21.30;36.10;;;;;;5005005;28;115214;-79
2023/06/13 06:51:03;;;;;;;6.22;2.97;;;21.30;36.10;;;;;;5005575;28;114349;-78
2023/06/13 06:53:31;;;;;;;5.15;3.42;;;21.30;36.10;;;;;;5007147;28;114345;-78
2023/06/13 06:55:58;;;;;;;4.28;2.83;;;21.30;36.50;;;;;;5023766;28;116139;-77
2023/06/13 06:58:26;;;;;;;4.80;3.17;;;21.30;35.40;;;;;;5025606;27;115223;-77
2023/06/13 07:00:56;;;;;;;4.93;2.88;;;21.10;36.10;;;;;;5024818;28;114271;-77
2023/06/13 07:03:23;;;;;;;4.63;2.70;;;21.00;36.60;;;;;;5026615;27;114245;-78
2023/06/13 07:05:51;;;;;;;4.97;2.78;;;21.00;35.80;;;;;;5024199;28;115344;-77
2023/06/13 07:08:18;;;;;;;5.93;2.42;;;21.00;35.20;;;;;;5025583;28;114663;-78
2023/06/13 07:10:45;;;;;;;5.20;2.60;;;20.90;35.90;;;;;;5024699;28;114445;-78
2023/06/13 07:13:12;;;;;;;4.05;2.40;;;20.80;35.90;;;;;;5026727;28;114146;-77
2023/06/13 07:15:39;;;;;;;4.80;2.35;;;20.70;35.90;;;;;;5025583;28;115508;-77
2023/06/13 07:18:08;;;;;;;6.07;2.50;;;20.60;35.10;;;;;;5025155;28;115086;-77
2023/06/13 07:20:35;;;;;;;4.47;2.80;;;20.50;35.70;;;;;;5025796;27;114250;-77
2023/06/13 07:23:02;;;;;;;5.28;2.28;;;20.50;36.30;;;;;;5025942;28;114235;-77
2023/06/13 07:25:31;;;;;;;4.47;2.15;;;20.50;35.10;;;;;;5023546;28;114868;-78
2023/06/13 07:27:59;;;;;;;4.25;2.60;;;20.40;35.20;;;;;;5025313;28;115162;-76
2023/06/13 07:30:26;;;;;;;4.13;2.30;;;20.50;35.30;;;;;;5025039;28;114655;-77
2023/06/13 07:32:57;;;;;;;4.78;2.70;;;20.40;35.50;;;;;;5025541;28;114282;-77
2023/06/13 07:35:28;;;;;;;;;;;20.40;34.70;;;;;;5023841;28;116700;-77
2023/06/13 07:37:56;;;;;;;4.65;2.95;;;20.20;35.30;;;;;;5007637;28;116589;-78
2023/06/13 07:40:24;;;;;;;5.32;3.08;;;19.90;35.40;;;;;;5007929;28;114534;-77
2023/06/13 07:42:52;;;;;;;5.55;2.80;;;19.80;35.90;;;;;;5024372;28;114451;-78
2023/06/13 07:45:19;;;;;;;5.38;2.88;;;19.70;35.40;;;;;;5023038;27;114566;-78
2023/06/13 07:47:46;;;;;;;6.35;2.75;;;19.70;35.30;;;;;;5018089;28;118743;-78
2023/06/13 07:50:13;;;;;;;3.67;2.30;;;19.50;35.90;;;;;;5005221;28;114414;-78
2023/06/13 07:52:41;;;;;;;3.92;2.28;;;19.40;36.40;;;;;;5003906;28;114566;-78
2023/06/13 07:55:08;;;;;;;3.70;2.42;;;19.40;36.70;;;;;;5004550;28;114963;-79
2023/06/13 07:57:36;;;;;;;4.53;2.40;;;19.60;36.30;;;;;;5003452;28;118115;-78
2023/06/13 08:00:23;;;;;;;4.68;2.38;;;19.40;36.70;;;;;;4999295;28;114353;-78
2023/06/13 08:02:50;;;;;;;4.40;2.50;;;19.60;37.10;;;;;;5004444;28;114288;-78
2023/06/13 08:05:18;;;;;;;4.63;2.42;;;19.80;37.10;;;;;;5003973;28;117315;-78
2023/06/13 08:07:45;;;;;;;5.47;2.30;;;19.80;36.90;;;;;;5003372;28;114524;-78
2023/06/13 08:10:12;;;;;;;5.55;2.47;;;19.90;36.30;;;;;;5003867;28;114411;-78
2023/06/13 08:12:40;;;;;;;5.07;2.22;;;19.90;36.30;;;;;;5005854;28;114158;-78
2023/06/13 08:15:09;;;;;;;5.38;2.20;;;20.00;35.90;;;;;;5003229;28;115072;-78
2023/06/13 08:17:37;;;;;;;5.35;2.40;;;20.10;35.80;;;;;;5004120;28;114837;-77
2023/06/13 08:20:05;;;;;;;5.13;2.42;;;20.10;35.80;;;;;;5003540;28;114300;-78
2023/06/13 08:22:32;;;;;;;3.50;2.08;;;20.20;35.00;;;;;;5005102;28;114186;-78
2023/06/13 08:25:00;;;;;;;4.15;2.53;;;20.20;35.00;;;;;;5003015;28;118107;-77
2023/06/13 08:27:28;;;;;;;4.60;2.25;;;20.20;35.60;;;;;;5002761;28;115137;-77
2023/06/13 08:29:56;;;;;;;6.28;2.60;;;20.20;35.30;;;;;;5004533;28;114926;-77
2023/06/13 08:32:24;;;;;;;6.15;2.60;;;20.20;35.40;;;;;;5004679;28;114417;-77
2023/06/13 08:34:54;;;;;;;5.95;2.53;;;20.20;36.10;;;;;;4985885;28;115045;-77
2023/06/13 08:37:22;;;;;;;6.57;2.22;;;20.30;36.10;;;;;;5003809;28;114991;-77
2023/06/13 08:39:50;;;;;;;5.13;2.63;;;20.30;35.90;;;;;;5004811;28;114282;-77
2023/06/13 08:42:18;;;;;;;5.63;2.60;;;20.40;35.60;;;;;;5004792;28;114346;-77
2023/06/13 08:44:46;;;;;;;6.07;2.78;;;20.30;35.10;;;;;;5002968;28;114999;-77
2023/06/13 08:47:13;;;;;;;5.30;2.50;;;19.90;35.50;;;;;;5004162;28;115513;-77
2023/06/13 08:50:01;;;;;;;6.65;2.78;;;19.60;36.40;;;;;;5004919;28;114608;-77
2023/06/13 08:52:38;;;;;;;5.18;3.00;;;19.30;37.30;;;;;;5003580;28;114402;-78
2023/06/13 08:55:12;;;;;;;7.63;2.50;;;19.20;37.50;;;;;;5003152;28;117482;-78
2023/06/13 08:58:00;;;;;;;5.43;2.63;;;19.20;38.00;;;;;;4991023;28;114607;-78
2023/06/13 09:00:27;;;;;;;5.60;2.78;;;19.40;38.10;;;;;;5006588;28;114636;-78
2023/06/13 09:02:55;;;;;;;7.07;2.78;;;19.60;36.90;;;;;;4990388;28;114406;-78
2023/06/13 09:05:23;;;;;;;6.38;2.92;;;19.70;36.60;;;;;;4989711;28;117067;-78
2023/06/13 09:07:54;;;;;;;6.35;2.72;;;19.80;36.70;;;;;;4990356;28;114619;-78
2023/06/13 09:10:38;;;;;;;4.93;2.60;;;19.80;37.00;;;;;;5019293;28;114503;-78
2023/06/13 09:13:06;;;;;;;5.57;2.90;;;19.70;37.10;;;;;;5028277;28;114330;-77
2023/06/13 09:15:33;;;;;;;5.65;3.00;;;19.80;36.80;;;;;;5008996;28;115363;-77
2023/06/13 09:18:02;;;;;;;5.57;2.78;;;19.80;36.60;;;;;;5005919;28;114612;-77
2023/06/13 09:20:30;;;;;;;6.10;2.78;;;19.60;36.90;;;;;;5026942;28;114535;-78
2023/06/13 09:23:00;;;;;;;5.55;3.10;;;19.60;37.30;;;;;;4994232;28;114353;-77
2023/06/13 09:25:27;;;;;;;7.93;3.13;;;19.50;37.10;;;;;;5025303;28;119204;-77
2023/06/13 09:27:55;;;;;;;5.47;3.10;;;19.50;37.10;;;;;;5026186;28;116467;-77
2023/06/13 09:30:24;;;;;;;9.88;3.03;;;19.40;37.60;;;;;;5010766;28;114414;-77
2023/06/13 09:32:53;;;;;;;6.20;3.50;;;19.40;38.00;;;;;;5027071;28;114486;-77
2023/06/13 09:35:20;;;;;;;5.50;3.00;;;19.60;37.60;;;;;;5025905;28;115246;-77
2023/06/13 09:38:04;;;;;;;4.88;3.30;;;19.50;37.80;;;;;;5026050;27;115685;-78
2023/06/13 09:40:31;;;;;;;7.57;3.15;;;19.50;37.60;;;;;;5010430;28;114435;-77
2023/06/13 09:43:02;;;;;;;5.45;3.28;;;19.80;37.60;;;;;;5027003;28;114422;-78
2023/06/13 09:45:32;;;;;;;6.07;3.05;;;19.80;37.50;;;;;;5024743;28;116508;-77
2023/06/13 09:47:59;;;;;;;5.72;3.20;;;19.90;37.00;;;;;;5025036;28;114920;-77
2023/06/13 09:50:29;;;;;;;5.13;3.10;;;20.00;36.60;;;;;;5018168;28;117181;-76
2023/06/13 09:52:58;;;;;;;5.45;3.05;;;20.10;36.60;;;;;;5008058;28;114238;-77
2023/06/13 09:55:27;;;;;;;5.63;3.20;;;20.20;36.10;;;;;;5001709;28;117854;-78
2023/06/13 09:57:55;;;;;;;5.85;2.65;;;20.20;36.10;;;;;;5026620;28;114734;-77
2023/06/13 10:00:42;;;;;;;6.25;3.33;;;20.00;36.70;;;;;;5026942;28;114300;-77
2023/06/13 10:03:10;;;;;;;9.93;3.38;;;20.00;36.30;;;;;;5026153;28;114450;-77
2023/06/13 10:05:46;;;;;;;5.35;3.10;;;20.00;36.90;;;;;;5025949;28;115461;-77
2023/06/13 10:08:14;;;;;;;5.10;3.25;;;20.00;36.60;;;;;;5008407;28;114542;-78
2023/06/13 10:10:41;;;;;;;4.82;3.50;;;19.90;36.10;;;;;;5025808;28;114582;-77
2023/06/13 10:13:10;;;;;;;6.40;3.00;;;19.80;36.80;;;;;;4997900;28;116148;-77
2023/06/13 10:15:43;;;;;;;7.20;3.00;;;19.90;37.10;;;;;;4998329;28;115067;-77
2023/06/13 10:18:12;;;;;;;5.78;3.22;;;20.00;37.20;;;;;;5004965;28;114582;-78
2023/06/13 10:20:39;;;;;;;7.90;3.00;;;20.20;36.30;;;;;;5005542;28;115452;-78
2023/06/13 10:23:07;;;;;;;5.18;3.05;;;20.20;36.60;;;;;;5005558;28;115456;-78
2023/06/13 10:25:35;;;;;;;5.68;3.65;;;20.10;36.20;;;;;;4970049;28;116291;-78
2023/06/13 10:28:13;;;;;;;5.60;3.00;;;20.00;35.90;;;;;;5004264;28;114674;-78
2023/06/13 10:30:43;;;;;;;5.68;3.22;;;19.80;36.20;;;;;;5008379;28;114589;-78
2023/06/13 10:33:30;;;;;;;6.22;3.35;;;19.60;36.90;;;;;;5025861;28;114283;-77
2023/06/13 10:36:16;;;;;;;4.70;3.20;;;19.70;36.80;;;;;;5020026;28;116202;-78
2023/06/13 10:39:22;;;;;;;4.55;2.80;;;19.70;37.10;;;;;;5006373;28;114646;-78
2023/06/13 10:42:07;;;;;;;5.00;3.15;;;19.90;36.90;;;;;;5005051;28;114489;-78
2023/06/13 10:44:44;;;;;;;8.00;3.50;;;20.20;37.00;;;;;;5005173;28;114350;-78
2023/06/13 10:47:18;;;;;;;6.03;3.50;;;20.30;36.30;;;;;;5005601;28;117070;-78
2023/06/13 10:49:48;;;;;;;5.43;3.15;;;20.20;36.30;;;;;;5004269;28;114722;-78
2023/06/13 10:52:15;;;;;;;6.70;3.25;;;19.90;37.10;;;;;;4972413;28;114456;-78
2023/06/13 10:54:42;;;;;;;5.43;3.20;;;19.90;37.20;;;;;;5010789;28;114990;-78
2023/06/13 10:57:10;;;;;;;6.90;3.15;;;20.00;37.10;;;;;;5007454;28;115003;-78
2023/06/13 10:59:40;;;;;;;6.40;3.88;;;20.00;37.50;;;;;;5008054;28;117278;-77
2023/06/13 11:02:16;;;;;;;5.50;3.35;;;19.90;36.80;;;;;;5023399;28;115432;-78
2023/06/13 11:04:51;;;;;;;8.20;3.00;;;19.80;37.60;;;;;;5005265;28;114576;-78
2023/06/13 11:07:21;;;;;;;6.88;3.00;;;19.80;37.60;;;;;;4987272;28;114854;-78
2023/06/13 11:10:11;;;;;;;5.60;2.95;;;19.80;37.50;;;;;;5005847;28;114646;-77
2023/06/13 11:12:41;;;;;;;5.72;3.35;;;19.80;37.20;;;;;;5005439;28;114509;-78
2023/06/13 11:15:22;;;;;;;7.53;3.40;;;19.80;36.70;;;;;;5005232;28;114269;-78
2023/06/13 11:18:08;;;;;;;6.10;3.60;;;19.90;36.40;;;;;;4998172;28;114878;-78
2023/06/13 11:20:49;;;;;;;4.85;3.40;;;19.70;36.70;;;;;;5003628;28;114627;-77
2023/06/13 11:23:24;;;;;;;7.55;3.00;;;19.60;36.90;;;;;;5006351;28;114679;-77
2023/06/13 11:25:52;;;;;;;6.13;3.25;;;19.60;37.20;;;;;;5005602;28;114261;-77
2023/06/13 11:28:19;;;;;;;6.72;3.30;;;19.70;37.30;;;;;;5003672;28;116152;-77
2023/06/13 11:30:47;;;;;;;9.75;3.65;;;19.90;37.50;;;;;;4987219;28;115295;-77
2023/06/13 11:33:18;;;;;;;5.13;2.90;;;20.00;37.60;;;;;;5004594;28;114489;-77
2023/06/13 11:35:49;;;;;;;6.20;3.58;;;20.00;36.90;;;;;;5005506;28;114250;-77
2023/06/13 11:38:41;;;;;;;5.72;3.40;;;19.90;37.20;;;;;;5002979;28;116217;-77
2023/06/13 11:41:09;;;;;;;5.55;3.17;;;19.90;37.30;;;;;;4995330;28;114752;-77
2023/06/13 11:43:36;;;;;;;7.32;3.47;;;20.00;37.50;;;;;;5003678;28;114456;-77
2023/06/13 11:46:05;;;;;;;5.63;3.17;;;20.10;37.40;;;;;;4986774;28;114854;-77
2023/06/13 11:48:32;;;;;;;6.90;3.50;;;20.10;37.20;;;;;;5002260;28;115652;-77
2023/06/13 11:51:18;;;;;;;6.75;3.25;;;20.10;37.00;;;;;;4989554;28;117271;-77
2023/06/13 11:54:26;;;;;;;4.97;3.45;;;20.20;37.20;;;;;;5019800;28;114438;-77
2023/06/13 11:57:47;;;;;;;6.70;3.28;;;20.10;37.10;;;;;;5014855;28;114399;-78
2023/06/13 12:00:16;;;;;;;9.80;3.75;;;20.00;36.50;;;;;;5022172;28;115703;-76
2023/06/13 12:02:45;;;;;;;7.38;3.40;;;19.90;37.50;;;;;;5024404;27;114908;-76
2023/06/13 12:05:14;;;;;;;6.30;3.42;;;19.80;37.80;;;;;;5023181;28;114401;-76
2023/06/13 12:07:43;;;;;;;5.25;3.28;;;19.80;37.80;;;;;;5023967;28;114637;-77
2023/06/13 12:10:15;;;;;;;5.82;3.00;;;19.70;38.20;;;;;;5023825;27;115197;-76
2023/06/13 12:12:42;;;;;;;6.80;3.40;;;19.80;38.10;;;;;;5006603;28;114275;-77
2023/06/13 12:15:13;;;;;;;5.25;3.20;;;19.80;37.50;;;;;;5024240;28;114188;-76
2023/06/13 12:18:00;;;;;;;5.70;3.40;;;19.70;37.90;;;;;;5023913;28;114439;-76
2023/06/13 12:20:28;;;;;;;7.13;3.15;;;19.80;37.80;;;;;;5009199;28;115534;-76
2023/06/13 12:22:59;;;;;;;7.35;3.70;;;19.80;38.30;;;;;;5001789;28;114846;-76
2023/06/13 12:25:28;;;;;;;6.22;3.15;;;19.90;37.80;;;;;;5001105;28;114760;-77
2023/06/13 12:27:56;;;;;;;4.40;2.90;;;19.90;37.90;;;;;;5003106;28;114487;-77
2023/06/13 12:30:23;;;;;;;6.20;3.33;;;20.10;37.60;;;;;;4984790;28;116226;-77
2023/06/13 12:32:56;;;;;;;5.22;3.50;;;19.90;37.40;;;;;;4983658;28;117491;-77
2023/06/13 12:35:24;;;;;;;6.45;3.25;;;19.70;38.00;;;;;;5001606;28;114730;-76
2023/06/13 12:38:01;;;;;;;5.82;3.33;;;19.50;38.10;;;;;;4986707;28;118345;-76
2023/06/13 12:40:33;;;;;;;5.50;2.97;;;19.70;38.10;;;;;;5002073;28;115510;-76
2023/06/13 12:43:02;;;;;;;6.10;3.42;;;19.60;38.00;;;;;;5002569;28;114598;-76
2023/06/13 12:45:30;;;;;;;5.70;3.30;;;19.70;37.90;;;;;;5004628;28;114413;-76
2023/06/13 12:47:58;;;;;;;6.95;2.95;;;19.80;37.50;;;;;;5002954;28;114471;-77
2023/06/13 12:50:25;;;;;;;5.28;2.88;;;19.80;37.30;;;;;;5002937;28;116177;-77
2023/06/13 12:53:06;;;;;;;5.50;2.78;;;19.70;37.80;;;;;;4981509;28;117597;-77
2023/06/13 12:55:35;;;;;;;5.68;3.00;;;19.80;38.40;;;;;;5004084;28;114967;-77